Time;durP1;ratioP1;P1;durP2;ratioP2;P2;SDS_P1;SDS_P2;PMS_P1;PMS_P2;Temp;Humidity;BMP_temperature;BMP_pressure;BME280_temperature;BME280_humidity;BME280_pressure;Samples;Min_cycle;Max_cycle;Signal;HPM_P1;HPM_P2
2022/01/21 00:04:38;;;;;;;5.05;0.88;;;11.50;48.60;;;;;;20607246;28;20469;-79
2022/01/21 00:14:38;;;;;;;2.38;0.98;;;11.60;48.60;;;;;;20624494;28;20341;-78
2022/01/21 00:34:58;;;;;;;2.88;0.50;;;11.40;48.50;;;;;;20644919;28;20767;-79
2022/01/21 00:45:00;;;;;;;1.45;0.57;;;11.40;48.40;;;;;;20638793;28;20042;-79
2022/01/21 00:55:00;;;;;;;2.70;0.50;;;11.40;48.50;;;;;;20638371;28;20121;-80
2022/01/21 01:05:01;;;;;;;0.75;0.43;;;11.40;48.40;;;;;;20636533;28;20062;-80
2022/01/21 01:35:42;;;;;;;0.45;0.30;;;11.30;48.20;;;;;;20640368;28;20034;-79
2022/01/21 01:56:04;;;;;;;2.85;0.70;;;11.40;48.20;;;;;;20653105;28;20082;-81
2022/01/21 02:06:05;;;;;;;2.15;0.80;;;11.30;48.10;;;;;;20633937;28;20042;-80
2022/01/21 02:26:17;;;;;;;2.53;1.30;;;11.30;48.00;;;;;;20634981;28;20567;-81
2022/01/21 02:36:17;;;;;;;3.83;1.30;;;11.30;48.10;;;;;;20633323;28;20038;-80
2022/01/21 02:46:21;;;;;;;1.95;1.08;;;11.30;48.10;;;;;;20618266;28;20370;-80
2022/01/21 02:56:22;;;;;;;2.22;1.05;;;11.20;48.00;;;;;;20633559;28;20097;-81
2022/01/21 03:06:23;;;;;;;2.65;0.60;;;11.20;48.10;;;;;;20616797;28;20031;-79
2022/01/21 03:16:24;;;;;;;1.70;0.60;;;11.20;48.10;;;;;;20647427;28;20026;-80
2022/01/21 03:26:25;;;;;;;3.63;0.80;;;11.20;48.20;;;;;;20631332;28;20073;-79
2022/01/21 03:36:28;;;;;;;4.15;1.52;;;11.20;48.40;;;;;;20645170;28;20116;-80
2022/01/21 03:46:28;;;;;;;2.42;0.90;;;11.20;48.50;;;;;;20645504;28;20050;-80
2022/01/21 03:56:30;;;;;;;4.20;0.65;;;11.20;48.60;;;;;;20676471;28;20080;-80
2022/01/21 04:06:31;;;;;;;7.25;0.98;;;11.20;48.70;;;;;;20644074;28;20038;-80
2022/01/21 04:16:32;;;;;;;3.20;0.65;;;11.20;48.70;;;;;;20626764;28;20044;-82
2022/01/21 04:26:34;;;;;;;6.70;1.40;;;11.20;48.80;;;;;;20617990;28;20050;-82
2022/01/21 04:36:42;;;;;;;4.63;1.30;;;11.20;48.90;;;;;;20562611;28;20030;-79
2022/01/21 04:57:03;;;;;;;3.92;0.90;;;11.10;49.00;;;;;;20564149;28;20193;-80
2022/01/21 05:07:06;;;;;;;3.47;0.88;;;11.10;49.00;;;;;;20559148;28;20043;-79
2022/01/21 05:17:09;;;;;;;3.30;0.82;;;11.40;48.80;;;;;;20558280;28;20038;-81
2022/01/21 05:27:12;;;;;;;11.27;1.27;;;12.40;47.00;;;;;;20574228;28;20035;-80
2022/01/21 05:37:17;;;;;;;5.60;1.05;;;13.40;45.00;;;;;;20542523;28;20532;-81
2022/01/21 05:47:56;;;;;;;2.85;0.77;;;14.50;43.10;;;;;;20563599;28;20073;-79
2022/01/21 05:58:14;;;;;;;1.45;0.63;;;15.10;41.70;;;;;;20608690;28;20039;-78
2022/01/21 06:08:18;;;;;;;5.75;1.40;;;15.30;41.10;;;;;;20597147;28;20035;-77
2022/01/21 06:18:18;;;;;;;2.80;1.00;;;15.30;40.80;;;;;;20617827;28;20397;-78
2022/01/21 06:28:19;;;;;;;5.60;0.98;;;15.20;40.80;;;;;;20619746;28;20304;-78
2022/01/21 06:38:20;;;;;;;3.67;0.93;;;14.30;42.00;;;;;;20637561;28;20018;-80
2022/01/21 06:48:21;;;;;;;5.35;1.00;;;13.30;43.50;;;;;;20649338;28;20054;-82
2022/01/21 06:58:23;;;;;;;1.45;0.60;;;12.60;45.00;;;;;;20631992;28;20046;-81
2022/01/21 07:08:24;;;;;;;4.95;1.38;;;12.10;46.30;;;;;;20659147;28;20038;-81
2022/01/21 07:18:24;;;;;;;3.90;1.05;;;11.70;47.30;;;;;;20612713;28;20031;-80
2022/01/21 07:28:25;;;;;;;3.90;0.87;;;11.40;48.00;;;;;;20602411;28;20034;-81
2022/01/21 07:38:26;;;;;;;5.88;1.10;;;11.20;48.70;;;;;;20632204;28;20294;-82
2022/01/21 07:48:28;;;;;;;3.88;0.93;;;11.20;49.20;;;;;;20656416;28;20496;-80
2022/01/21 07:58:29;;;;;;;3.85;0.80;;;11.10;49.50;;;;;;20579900;28;20382;-78
2022/01/21 08:08:30;;;;;;;4.85;1.27;;;11.10;49.80;;;;;;20623871;28;20034;-78
2022/01/21 08:18:31;;;;;;;1.45;0.70;;;11.00;50.10;;;;;;20658192;28;20093;-76
2022/01/21 08:28:31;;;;;;;3.67;1.20;;;11.00;50.30;;;;;;20641260;28;20038;-78
2022/01/21 08:38:34;;;;;;;4.10;1.30;;;10.90;50.50;;;;;;20608425;28;20045;-79
2022/01/21 08:48:38;;;;;;;1.15;0.70;;;10.80;50.70;;;;;;20624421;28;20038;-79
2022/01/21 08:58:39;;;;;;;4.53;0.88;;;10.80;51.00;;;;;;20588086;28;20035;-79
2022/01/21 09:08:41;;;;;;;2.00;0.93;;;10.70;51.20;;;;;;20575124;28;20031;-76
2022/01/21 09:18:51;;;;;;;2.03;0.80;;;10.70;51.50;;;;;;20651825;28;20037;-79
2022/01/21 09:28:51;;;;;;;3.17;1.02;;;10.60;51.70;;;;;;20637982;28;20037;-76
2022/01/21 09:38:54;;;;;;;1.63;0.65;;;10.60;51.80;;;;;;20632558;28;20035;-74
2022/01/21 09:49:07;;;;;;;3.05;1.02;;;10.50;51.90;;;;;;20560847;28;20552;-80
2022/01/21 09:59:07;;;;;;;5.28;1.48;;;10.60;52.10;;;;;;20621595;28;20041;-76
2022/01/21 10:09:08;;;;;;;4.05;1.65;;;10.50;52.30;;;;;;20648346;28;20031;-77
2022/01/21 10:19:11;;;;;;;5.03;1.35;;;10.50;52.40;;;;;;20528021;28;20027;-76
2022/01/21 10:29:12;;;;;;;3.95;1.55;;;10.50;52.50;;;;;;20565018;28;20509;-76
2022/01/21 10:39:29;;;;;;;2.92;0.80;;;10.40;52.70;;;;;;20636410;28;20042;-76
2022/01/21 10:49:29;;;;;;;4.60;1.33;;;10.30;52.70;;;;;;20626847;28;20137;-76
2022/01/21 10:59:49;;;;;;;2.85;1.05;;;10.20;52.90;;;;;;20567431;28;20074;-77
2022/01/21 11:09:49;;;;;;;5.03;1.30;;;10.20;53.00;;;;;;20602475;28;20047;-75
2022/01/21 11:20:07;;;;;;;1.67;0.80;;;10.60;52.40;;;;;;20583526;28;20165;-76
2022/01/21 11:30:08;;;;;;;4.30;1.00;;;11.90;49.70;;;;;;20615224;28;20046;-76
2022/01/21 11:40:09;;;;;;;3.58;0.90;;;13.40;46.60;;;;;;20572015;28;20035;-84
2022/01/21 11:50:09;;;;;;;2.67;1.05;;;13.40;45.80;;;;;;21060985;23;20053;-80
2022/01/21 12:00:17;;;;;;;1.88;0.93;;;12.80;46.50;;;;;;20684303;28;20037;-82
2022/01/21 12:10:21;;;;;;;3.85;1.00;;;12.30;47.60;;;;;;20743461;28;20484;-81
2022/01/21 12:20:32;;;;;;;2.40;0.82;;;11.80;49.00;;;;;;20741487;28;20034;-82
2022/01/21 12:30:32;;;;;;;2.75;0.77;;;11.40;49.20;;;;;;20709533;28;20462;-80
2022/01/21 12:40:52;;;;;;;2.55;1.33;;;11.10;49.70;;;;;;20610045;28;20041;-81
2022/01/21 12:50:59;;;;;;;3.30;1.42;;;11.00;50.30;;;;;;20627254;28;20429;-81
2022/01/21 13:01:03;;;;;;;3.80;0.77;;;10.90;50.60;;;;;;20644524;28;20109;-80
2022/01/21 13:11:11;;;;;;;6.22;1.08;;;10.90;50.90;;;;;;20641012;28;20113;-81
2022/01/21 13:21:12;;;;;;;3.65;1.30;;;10.80;51.10;;;;;;20640152;28;20122;-82
2022/01/21 13:31:12;;;;;;;1.20;0.50;;;10.80;51.20;;;;;;20637577;28;20062;-78
2022/01/21 13:41:13;;;;;;;5.00;1.10;;;10.80;51.30;;;;;;20650447;28;20045;-78
2022/01/21 13:51:14;;;;;;;3.65;1.10;;;10.80;51.40;;;;;;20732445;28;20061;-79
2022/01/21 14:01:14;;;;;;;6.60;1.05;;;10.90;51.50;;;;;;20639264;28;20416;-75
2022/01/21 14:11:15;;;;;;;2.47;1.08;;;10.80;51.60;;;;;;20630148;28;20041;-78
2022/01/21 14:21:17;;;;;;;5.83;1.33;;;11.00;51.60;;;;;;20664756;28;20039;-80
2022/01/21 14:31:45;;;;;;;5.35;0.65;;;11.30;51.10;;;;;;20685740;28;20783;-79
2022/01/21 14:41:48;;;;;;;2.53;0.80;;;11.60;50.50;;;;;;20670211;28;20480;-79
2022/01/21 14:52:02;;;;;;;4.22;1.00;;;11.90;50.10;;;;;;20621580;28;20087;-79
2022/01/21 15:02:08;;;;;;;6.75;1.13;;;12.00;49.70;;;;;;20686674;28;20125;-80
2022/01/21 15:14:23;;;;;;;7.27;1.90;;;12.10;49.50;;;;;;20652130;28;20061;-80
2022/01/21 15:22:32;;;;;;;4.30;0.88;;;12.10;49.50;;;;;;20681401;28;20397;-82
2022/01/21 15:32:35;;;;;;;3.42;0.98;;;11.90;50.10;;;;;;20728551;28;20125;-80
2022/01/21 15:42:36;;;;;;;4.40;0.95;;;11.60;50.90;;;;;;20744684;28;20048;-79
2022/01/21 15:52:38;;;;;;;5.38;1.13;;;12.10;50.60;;;;;;20711498;28;20369;-81
2022/01/21 16:02:48;;;;;;;3.50;0.93;;;13.10;48.80;;;;;;20685239;28;20089;-79
2022/01/21 16:12:49;;;;;;;1.55;0.70;;;14.20;47.00;;;;;;20644808;28;20038;-84
2022/01/21 16:22:53;;;;;;;2.00;1.00;;;14.90;45.70;;;;;;20656894;28;20072;-80
2022/01/21 16:32:54;;;;;;;3.90;1.15;;;15.20;44.60;;;;;;20666288;28;20065;-79
2022/01/21 16:42:54;;;;;;;3.33;1.00;;;15.10;44.70;;;;;;20658538;28;20038;-83
2022/01/21 16:52:55;;;;;;;2.50;1.38;;;15.10;44.60;;;;;;20642079;28;20042;-83
2022/01/21 17:02:56;;;;;;;4.07;1.08;;;14.90;45.00;;;;;;20642720;28;20058;-82
2022/01/21 17:12:57;;;;;;;3.63;1.15;;;14.10;46.30;;;;;;20639957;28;20038;-80
2022/01/21 17:22:58;;;;;;;2.33;1.23;;;13.30;47.80;;;;;;20655954;28;20080;-84
2022/01/21 17:32:59;;;;;;;3.58;1.50;;;12.60;49.10;;;;;;20656889;28;20038;-83
2022/01/21 17:42:59;;;;;;;6.45;1.65;;;12.10;50.30;;;;;;20638970;28;20046;-80
2022/01/21 17:53:01;;;;;;;3.35;1.48;;;11.80;51.40;;;;;;20649601;28;20531;-79
2022/01/21 18:03:01;;;;;;;8.10;1.95;;;11.50;52.10;;;;;;20649346;28;20038;-83
2022/01/21 18:13:02;;;;;;;5.32;1.40;;;11.40;52.60;;;;;;20651029;28;20034;-85
2022/01/21 18:23:07;;;;;;;5.68;1.95;;;11.40;53.00;;;;;;20618231;28;20030;-84
2022/01/21 18:33:07;;;;;;;4.65;1.60;;;11.40;53.10;;;;;;20649656;28;20045;-84
2022/01/21 18:43:11;;;;;;;3.95;1.30;;;11.50;53.20;;;;;;20678099;28;20054;-83
2022/01/21 18:53:12;;;;;;;4.82;1.40;;;11.50;53.30;;;;;;20621736;28;20026;-83
2022/01/21 19:03:14;;;;;;;6.60;1.58;;;11.60;53.40;;;;;;20660858;28;20084;-85
2022/01/21 19:13:15;;;;;;;4.90;1.75;;;11.60;53.40;;;;;;20652232;28;20030;-85
2022/01/21 19:23:25;;;;;;;3.57;1.30;;;11.60;53.50;;;;;;20669887;28;20177;-85
2022/01/21 19:33:29;;;;;;;8.30;1.55;;;11.60;53.70;;;;;;20654114;28;20301;-84
2022/01/21 19:43:30;;;;;;;2.38;1.27;;;11.60;53.80;;;;;;20665650;28;20046;-84
2022/01/21 19:53:33;;;;;;;1.67;1.20;;;11.60;54.00;;;;;;20703134;28;20030;-85
2022/01/21 20:14:08;;;;;;;2.13;1.25;;;11.60;54.30;;;;;;20616183;28;20101;-84
2022/01/21 20:24:12;;;;;;;1.23;0.73;;;11.60;54.40;;;;;;20596851;28;20034;-83
2022/01/21 20:34:14;;;;;;;1.23;0.93;;;11.60;54.70;;;;;;20598815;28;20093;-82
2022/01/21 20:44:30;;;;;;;2.90;1.50;;;11.60;54.90;;;;;;20581571;28;20133;-82
2022/01/21 20:54:30;;;;;;;2.45;0.90;;;11.60;55.10;;;;;;20578455;28;20466;-83
2022/01/21 21:04:32;;;;;;;1.13;0.77;;;11.60;55.40;;;;;;20603424;28;20062;-83
2022/01/21 21:14:38;;;;;;;1.95;1.00;;;11.50;55.60;;;;;;20661874;28;20038;-84
2022/01/21 21:24:42;;;;;;;1.23;0.70;;;11.50;55.90;;;;;;20704047;28;20119;-83
2022/01/21 22:47:47;;;;;;;0.47;0.20;;;11.50;58.10;;;;;;20670123;28;20121;-83
2022/01/21 23:08:04;;;;;;;0.40;0.20;;;11.50;58.50;;;;;;20667513;28;20042;-84
2022/01/21 23:18:11;;;;;;;0.60;0.38;;;11.40;58.70;;;;;;20666513;28;20101;-83
2022/01/21 23:28:12;;;;;;;0.83;0.20;;;11.40;59.00;;;;;;20666489;28;20221;-82
2022/01/21 23:38:28;;;;;;;0.30;0.20;;;11.40;59.20;;;;;;20665949;28;20129;-83
2022/01/21 23:48:29;;;;;;;0.75;0.22;;;11.40;59.50;;;;;;20659944;28;20074;-82
2022/01/21 23:58:32;;;;;;;0.90;0.20;;;11.40;59.70;;;;;;20681439;28;20531;-83
